INFORMACIÓN METAR y TAF
METAR FOR GCGM
ADDS - METARS form results

(1705 UTC 06 March 2021)
Data provider http://aviationweather.gov/metar/data/
 
METAR text: GCGM 061700Z 02007KT 290V100 9999 FEW022 SCT035 19/09 Q1021 RMK R09/05006KT 360V130 ARP/VRB07KT
Conditions at: GCGM (LA GOMERA ARPT , ES) observed 1700 UTC 06 March 2021
Temperature: 19.0°C (66°F)
Dewpoint: 9.0°C (48°F) [RH = 52%]
Pressure (altimeter): 30.15 inches Hg (1021.0 mb)
Winds: from the NNE (20 degrees) at 8 MPH (7 knots; 3.6 m/s)
Visibility: 6 or more miles (10+ km)
Ceiling: at least 12,000 feet AGL
Clouds: few clouds at 2200 feet AGL
scattered clouds at 3500 feet AGL
Weather: no significant weather observed at this time

METAR text: GCGM 061630Z VRB10G22KT 9999 SCT030 19/08 Q1021 RMK R09/VRB05KT ARP/VRB07KT
Conditions at: GCGM (LA GOMERA ARPT , ES) observed 1630 UTC 06 March 2021
Temperature: 19.0°C (66°F)
Dewpoint: 8.0°C (46°F) [RH = 49%]
Pressure (altimeter): 30.15 inches Hg (1021.0 mb)
Winds: variable direction winds at 12 MPH (10 knots; 5.1 m/s)
gusting to 25 MPH (22 knots; 11.3 m/s)
Visibility: 6 or more miles (10+ km)
Ceiling: at least 12,000 feet AGL
Clouds: scattered clouds at 3000 feet AGL
Weather: no significant weather observed at this time

Forecast for: GCGM (LA GOMERA ARPT , ES)
Text: TAF GCGM 061400Z 0615/0715 VRB15G25KT 9999 FEW030 TX21/0714Z TN15/0707Z
Forecast period: 1500 UTC 06 March 2021 to 1500 UTC 07 March 2021
Forecast type: FROM: standard forecast or significant change
Winds: variable direction winds at 17 MPH (15 knots; 7.7 m/s)
gusting to 29 MPH (25 knots; 12.9 m/s)
Visibility: 6 or more miles (10+ km)
Ceiling: at least 12,000 feet AGL
Clouds: few clouds at 3000 feet AGL
Weather: no significant weather forecast for this period
Text: PROB30
Forecast period: 1500 UTC 06 March 2021 to 1200 UTC 07 March 2021
Forecast type: TEMPORARY: The following changes expected for less than half the time period
Winds: variable direction winds at 6 MPH (5 knots; 2.6 m/s)
Visibility: missing
Ceiling: unknown
Clouds: missing
Weather: no significant weather forecast for this period
Text: TEMPO 0615/0712 VRB05KT
Forecast period: 1800 UTC 06 March 2021 to 0600 UTC 07 March 2021
Forecast type: TEMPORARY: The following changes expected for less than half the time period
Winds: variable direction winds at 21 MPH (18 knots; 9.3 m/s)
gusting to 40 MPH (35 knots; 18.0 m/s)
Visibility: missing
Ceiling: unknown
Clouds: missing
Weather: no significant weather forecast for this period

 MAPA DE AEROPUERTO

Add a default marker
 INFORMACIÓN DE PISTA
Pista 09 Longitud 4921 ft Ancho 98 ft
Elevación 716 ft Umbral desplazado 0 ft Rumbo de pista 81
Pista 27 Longitud 4921 ft Ancho 98 ft
Elevación 712 ft Umbral desplazado 0 ft Rumbo de pista 261

 FRECUANCIAS DEL AEROPUERTO
Tipo GND Nombre GND Frecuencia 121.7 MHZ
Tipo TWR Nombre TWR Frecuencia 118.4 MHZ

 RADIO AYUDAS DEL AEROPUERTO
Tipo VOR-DME Nombre La Gomera Frecuencia 116000 KHZ



Powered by Virtual Airlines Manager [v2.6.2]